sensor_id;sensor_type;location;lat;lon;timestamp;temperature;humidity
68924;DHT22;55961;52.156;20.942;2023-05-07T00:01:57;6.90;81.10
68924;DHT22;55961;52.156;20.942;2023-05-07T00:04:23;6.90;81.10
68924;DHT22;55961;52.156;20.942;2023-05-07T00:06:48;6.90;81.10
68924;DHT22;55961;52.156;20.942;2023-05-07T00:09:14;6.90;81.20
68924;DHT22;55961;52.156;20.942;2023-05-07T00:11:40;6.90;81.30
68924;DHT22;55961;52.156;20.942;2023-05-07T00:14:06;6.90;81.30
68924;DHT22;55961;52.156;20.942;2023-05-07T00:16:32;6.90;81.50
68924;DHT22;55961;52.156;20.942;2023-05-07T00:18:58;6.90;81.80
68924;DHT22;55961;52.156;20.942;2023-05-07T00:21:24;6.80;82.00
68924;DHT22;55961;52.156;20.942;2023-05-07T00:23:53;6.80;82.20
68924;DHT22;55961;52.156;20.942;2023-05-07T00:26:19;6.80;81.90
68924;DHT22;55961;52.156;20.942;2023-05-07T00:28:45;6.80;82.10
68924;DHT22;55961;52.156;20.942;2023-05-07T00:31:11;6.80;82.40
68924;DHT22;55961;52.156;20.942;2023-05-07T00:33:38;6.80;82.20
68924;DHT22;55961;52.156;20.942;2023-05-07T00:36:04;6.80;82.00
68924;DHT22;55961;52.156;20.942;2023-05-07T00:38:30;6.80;82.30
68924;DHT22;55961;52.156;20.942;2023-05-07T00:40:56;6.70;82.50
68924;DHT22;55961;52.156;20.942;2023-05-07T00:43:22;6.70;82.30
68924;DHT22;55961;52.156;20.942;2023-05-07T00:45:48;6.80;82.50
68924;DHT22;55961;52.156;20.942;2023-05-07T00:48:14;6.80;82.80
68924;DHT22;55961;52.156;20.942;2023-05-07T00:50:40;6.70;82.80
68924;DHT22;55961;52.156;20.942;2023-05-07T00:53:06;6.70;82.70
68924;DHT22;55961;52.156;20.942;2023-05-07T00:55:33;6.70;83.10
68924;DHT22;55961;52.156;20.942;2023-05-07T00:57:59;6.70;83.20
68924;DHT22;55961;52.156;20.942;2023-05-07T01:00:25;6.70;83.20
68924;DHT22;55961;52.156;20.942;2023-05-07T01:02:51;6.70;83.20
68924;DHT22;55961;52.156;20.942;2023-05-07T01:05:19;6.70;83.30
68924;DHT22;55961;52.156;20.942;2023-05-07T01:07:46;6.70;83.40
68924;DHT22;55961;52.156;20.942;2023-05-07T01:10:13;6.70;83.60
68924;DHT22;55961;52.156;20.942;2023-05-07T01:12:40;6.70;83.20
68924;DHT22;55961;52.156;20.942;2023-05-07T01:15:08;6.70;83.10
68924;DHT22;55961;52.156;20.942;2023-05-07T01:17:35;6.70;83.50
68924;DHT22;55961;52.156;20.942;2023-05-07T01:20:02;6.70;83.50
68924;DHT22;55961;52.156;20.942;2023-05-07T01:22:37;6.60;83.50
68924;DHT22;55961;52.156;20.942;2023-05-07T01:25:05;6.60;83.30
68924;DHT22;55961;52.156;20.942;2023-05-07T01:27:31;6.60;83.20
68924;DHT22;55961;52.156;20.942;2023-05-07T01:29:59;6.60;83.50
68924;DHT22;55961;52.156;20.942;2023-05-07T01:32:33;6.60;83.60
68924;DHT22;55961;52.156;20.942;2023-05-07T01:35:04;6.60;83.50
68924;DHT22;55961;52.156;20.942;2023-05-07T01:37:31;6.60;83.40
68924;DHT22;55961;52.156;20.942;2023-05-07T01:39:58;6.50;83.10
68924;DHT22;55961;52.156;20.942;2023-05-07T01:42:24;6.50;83.30
68924;DHT22;55961;52.156;20.942;2023-05-07T01:44:50;6.50;83.30
68924;DHT22;55961;52.156;20.942;2023-05-07T01:47:16;6.50;83.40
68924;DHT22;55961;52.156;20.942;2023-05-07T01:49:42;6.50;83.50
68924;DHT22;55961;52.156;20.942;2023-05-07T01:52:10;6.50;83.80
68924;DHT22;55961;52.156;20.942;2023-05-07T01:54:37;6.40;84.00
68924;DHT22;55961;52.156;20.942;2023-05-07T01:57:03;6.40;84.10
68924;DHT22;55961;52.156;20.942;2023-05-07T01:59:29;6.40;84.00
68924;DHT22;55961;52.156;20.942;2023-05-07T02:01:54;6.40;84.10
68924;DHT22;55961;52.156;20.942;2023-05-07T02:04:20;6.40;84.00
68924;DHT22;55961;52.156;20.942;2023-05-07T02:06:46;6.40;83.80
68924;DHT22;55961;52.156;20.942;2023-05-07T02:09:13;6.40;83.90
68924;DHT22;55961;52.156;20.942;2023-05-07T02:11:40;6.40;84.30
68924;DHT22;55961;52.156;20.942;2023-05-07T02:14:06;6.30;84.50
68924;DHT22;55961;52.156;20.942;2023-05-07T02:16:32;6.30;84.30
68924;DHT22;55961;52.156;20.942;2023-05-07T02:18:58;6.30;84.30
68924;DHT22;55961;52.156;20.942;2023-05-07T02:21:24;6.30;84.40
68924;DHT22;55961;52.156;20.942;2023-05-07T02:23:51;6.30;84.30
68924;DHT22;55961;52.156;20.942;2023-05-07T02:26:18;6.30;84.20
68924;DHT22;55961;52.156;20.942;2023-05-07T02:28:44;6.30;84.30
68924;DHT22;55961;52.156;20.942;2023-05-07T02:31:10;6.30;84.50
68924;DHT22;55961;52.156;20.942;2023-05-07T02:33:36;6.30;84.40
68924;DHT22;55961;52.156;20.942;2023-05-07T02:36:09;6.30;84.30
68924;DHT22;55961;52.156;20.942;2023-05-07T02:38:36;6.30;84.30
68924;DHT22;55961;52.156;20.942;2023-05-07T02:41:02;6.30;84.30
68924;DHT22;55961;52.156;20.942;2023-05-07T02:43:28;6.30;84.60
68924;DHT22;55961;52.156;20.942;2023-05-07T02:46:04;6.30;84.80
68924;DHT22;55961;52.156;20.942;2023-05-07T02:48:30;6.30;84.90
68924;DHT22;55961;52.156;20.942;2023-05-07T02:50:57;6.30;85.30
68924;DHT22;55961;52.156;20.942;2023-05-07T02:53:23;6.30;85.10
68924;DHT22;55961;52.156;20.942;2023-05-07T02:55:52;6.30;84.90
68924;DHT22;55961;52.156;20.942;2023-05-07T02:58:19;6.30;84.90
68924;DHT22;55961;52.156;20.942;2023-05-07T03:00:45;6.30;84.80
68924;DHT22;55961;52.156;20.942;2023-05-07T03:03:11;6.30;84.80
68924;DHT22;55961;52.156;20.942;2023-05-07T03:05:38;6.20;84.80
68924;DHT22;55961;52.156;20.942;2023-05-07T03:08:04;6.20;85.10
68924;DHT22;55961;52.156;20.942;2023-05-07T03:10:30;6.30;85.20
68924;DHT22;55961;52.156;20.942;2023-05-07T03:12:56;6.30;85.30
68924;DHT22;55961;52.156;20.942;2023-05-07T03:15:22;6.20;85.20
68924;DHT22;55961;52.156;20.942;2023-05-07T03:17:48;6.30;85.20
68924;DHT22;55961;52.156;20.942;2023-05-07T03:20:14;6.30;85.10
68924;DHT22;55961;52.156;20.942;2023-05-07T03:22:40;6.30;85.30
68924;DHT22;55961;52.156;20.942;2023-05-07T03:25:07;6.30;85.20
68924;DHT22;55961;52.156;20.942;2023-05-07T03:27:33;6.30;85.00
68924;DHT22;55961;52.156;20.942;2023-05-07T03:29:59;6.30;84.80
68924;DHT22;55961;52.156;20.942;2023-05-07T03:32:25;6.30;84.90
68924;DHT22;55961;52.156;20.942;2023-05-07T03:34:51;6.30;84.60
68924;DHT22;55961;52.156;20.942;2023-05-07T03:37:17;6.20;84.50
68924;DHT22;55961;52.156;20.942;2023-05-07T03:39:43;6.20;84.50
68924;DHT22;55961;52.156;20.942;2023-05-07T03:42:09;6.20;84.60
68924;DHT22;55961;52.156;20.942;2023-05-07T03:44:35;6.20;84.70
68924;DHT22;55961;52.156;20.942;2023-05-07T03:47:04;6.20;85.10
68924;DHT22;55961;52.156;20.942;2023-05-07T03:49:30;6.20;85.20
68924;DHT22;55961;52.156;20.942;2023-05-07T03:51:56;6.30;85.50
68924;DHT22;55961;52.156;20.942;2023-05-07T03:54:22;6.30;85.30
68924;DHT22;55961;52.156;20.942;2023-05-07T03:56:48;6.30;85.60
68924;DHT22;55961;52.156;20.942;2023-05-07T03:59:14;6.30;85.50
68924;DHT22;55961;52.156;20.942;2023-05-07T04:01:40;6.30;85.20
68924;DHT22;55961;52.156;20.942;2023-05-07T04:04:06;6.30;85.00
68924;DHT22;55961;52.156;20.942;2023-05-07T04:06:32;6.30;84.50
68924;DHT22;55961;52.156;20.942;2023-05-07T04:08:58;6.30;84.50
68924;DHT22;55961;52.156;20.942;2023-05-07T04:11:24;6.30;84.60
68924;DHT22;55961;52.156;20.942;2023-05-07T04:13:50;6.30;84.90
68924;DHT22;55961;52.156;20.942;2023-05-07T04:16:16;6.40;85.20
68924;DHT22;55961;52.156;20.942;2023-05-07T04:18:42;6.40;85.30
68924;DHT22;55961;52.156;20.942;2023-05-07T04:21:19;6.40;85.20
68924;DHT22;55961;52.156;20.942;2023-05-07T04:23:46;6.40;85.30
68924;DHT22;55961;52.156;20.942;2023-05-07T04:26:12;6.40;84.90
68924;DHT22;55961;52.156;20.942;2023-05-07T04:28:38;6.40;84.80
68924;DHT22;55961;52.156;20.942;2023-05-07T04:31:05;6.40;85.60
68924;DHT22;55961;52.156;20.942;2023-05-07T04:33:32;6.40;85.40
68924;DHT22;55961;52.156;20.942;2023-05-07T04:36:00;6.40;84.80
68924;DHT22;55961;52.156;20.942;2023-05-07T04:38:29;6.40;84.80
68924;DHT22;55961;52.156;20.942;2023-05-07T04:40:56;6.40;84.90
68924;DHT22;55961;52.156;20.942;2023-05-07T04:43:22;6.50;84.70
68924;DHT22;55961;52.156;20.942;2023-05-07T04:45:54;6.40;84.90
68924;DHT22;55961;52.156;20.942;2023-05-07T04:48:20;6.50;85.60
68924;DHT22;55961;52.156;20.942;2023-05-07T04:50:50;6.50;85.20
68924;DHT22;55961;52.156;20.942;2023-05-07T04:53:17;6.50;84.80
68924;DHT22;55961;52.156;20.942;2023-05-07T04:55:43;6.50;84.70
68924;DHT22;55961;52.156;20.942;2023-05-07T04:58:10;6.50;84.70
68924;DHT22;55961;52.156;20.942;2023-05-07T05:00:36;6.50;84.90
68924;DHT22;55961;52.156;20.942;2023-05-07T05:03:02;6.50;84.80
68924;DHT22;55961;52.156;20.942;2023-05-07T05:05:29;6.50;84.80
68924;DHT22;55961;52.156;20.942;2023-05-07T05:07:55;6.50;84.70
68924;DHT22;55961;52.156;20.942;2023-05-07T05:10:22;6.50;84.50
68924;DHT22;55961;52.156;20.942;2023-05-07T05:12:48;6.50;84.50
68924;DHT22;55961;52.156;20.942;2023-05-07T05:15:14;6.50;84.70
68924;DHT22;55961;52.156;20.942;2023-05-07T05:17:39;6.50;84.80
68924;DHT22;55961;52.156;20.942;2023-05-07T05:20:06;6.50;85.00
68924;DHT22;55961;52.156;20.942;2023-05-07T05:22:32;6.50;85.20
68924;DHT22;55961;52.156;20.942;2023-05-07T05:24:58;6.60;85.20
68924;DHT22;55961;52.156;20.942;2023-05-07T05:27:24;6.60;85.10
68924;DHT22;55961;52.156;20.942;2023-05-07T05:29:50;6.60;85.10
68924;DHT22;55961;52.156;20.942;2023-05-07T05:32:16;6.70;85.00
68924;DHT22;55961;52.156;20.942;2023-05-07T05:34:42;6.70;85.00
68924;DHT22;55961;52.156;20.942;2023-05-07T05:37:08;6.70;84.70
68924;DHT22;55961;52.156;20.942;2023-05-07T05:39:34;6.80;84.10
68924;DHT22;55961;52.156;20.942;2023-05-07T05:42:00;6.80;84.10
68924;DHT22;55961;52.156;20.942;2023-05-07T05:44:26;6.80;84.20
68924;DHT22;55961;52.156;20.942;2023-05-07T05:46:52;6.90;84.20
68924;DHT22;55961;52.156;20.942;2023-05-07T05:49:20;6.90;84.10
68924;DHT22;55961;52.156;20.942;2023-05-07T05:51:46;6.90;84.20
68924;DHT22;55961;52.156;20.942;2023-05-07T05:54:12;7.00;83.80
68924;DHT22;55961;52.156;20.942;2023-05-07T05:56:38;7.00;83.60
68924;DHT22;55961;52.156;20.942;2023-05-07T05:59:04;7.10;83.30
68924;DHT22;55961;52.156;20.942;2023-05-07T06:01:30;7.10;83.50
68924;DHT22;55961;52.156;20.942;2023-05-07T06:03:56;7.20;83.90
68924;DHT22;55961;52.156;20.942;2023-05-07T06:06:22;7.20;82.30
68924;DHT22;55961;52.156;20.942;2023-05-07T06:08:48;7.20;82.20
68924;DHT22;55961;52.156;20.942;2023-05-07T06:11:14;7.30;82.70
68924;DHT22;55961;52.156;20.942;2023-05-07T06:13:40;7.30;82.50
68924;DHT22;55961;52.156;20.942;2023-05-07T06:16:06;7.40;82.20
68924;DHT22;55961;52.156;20.942;2023-05-07T06:18:32;7.40;81.70
68924;DHT22;55961;52.156;20.942;2023-05-07T06:20:58;7.50;80.40
68924;DHT22;55961;52.156;20.942;2023-05-07T06:23:24;7.50;81.20
68924;DHT22;55961;52.156;20.942;2023-05-07T06:25:51;7.60;82.00
68924;DHT22;55961;52.156;20.942;2023-05-07T06:28:17;7.60;81.20
68924;DHT22;55961;52.156;20.942;2023-05-07T06:30:42;7.70;81.40
68924;DHT22;55961;52.156;20.942;2023-05-07T06:33:09;7.70;80.50
68924;DHT22;55961;52.156;20.942;2023-05-07T06:35:35;7.80;80.20
68924;DHT22;55961;52.156;20.942;2023-05-07T06:38:01;7.90;79.20
68924;DHT22;55961;52.156;20.942;2023-05-07T06:40:27;7.90;78.60
68924;DHT22;55961;52.156;20.942;2023-05-07T06:42:53;8.00;79.10
68924;DHT22;55961;52.156;20.942;2023-05-07T06:45:19;8.10;79.40
68924;DHT22;55961;52.156;20.942;2023-05-07T06:47:46;8.20;78.20
68924;DHT22;55961;52.156;20.942;2023-05-07T06:50:11;8.20;77.20
68924;DHT22;55961;52.156;20.942;2023-05-07T06:52:38;8.30;76.80
68924;DHT22;55961;52.156;20.942;2023-05-07T06:55:04;8.40;76.90
68924;DHT22;55961;52.156;20.942;2023-05-07T06:57:30;8.40;77.00
68924;DHT22;55961;52.156;20.942;2023-05-07T06:59:56;8.50;76.70
68924;DHT22;55961;52.156;20.942;2023-05-07T07:02:22;8.50;76.80
68924;DHT22;55961;52.156;20.942;2023-05-07T07:04:48;8.60;77.20
68924;DHT22;55961;52.156;20.942;2023-05-07T07:07:14;8.60;77.90
68924;DHT22;55961;52.156;20.942;2023-05-07T07:09:40;8.70;76.80
68924;DHT22;55961;52.156;20.942;2023-05-07T07:12:06;8.70;76.80
68924;DHT22;55961;52.156;20.942;2023-05-07T07:14:32;8.70;76.50
68924;DHT22;55961;52.156;20.942;2023-05-07T07:16:58;8.80;75.60
68924;DHT22;55961;52.156;20.942;2023-05-07T07:19:23;8.80;75.20
68924;DHT22;55961;52.156;20.942;2023-05-07T07:21:49;8.80;75.40
68924;DHT22;55961;52.156;20.942;2023-05-07T07:24:15;8.80;75.90
68924;DHT22;55961;52.156;20.942;2023-05-07T07:26:45;8.90;75.60
68924;DHT22;55961;52.156;20.942;2023-05-07T07:29:10;8.90;75.80
68924;DHT22;55961;52.156;20.942;2023-05-07T07:31:36;8.90;76.00
68924;DHT22;55961;52.156;20.942;2023-05-07T07:34:02;9.00;76.80
68924;DHT22;55961;52.156;20.942;2023-05-07T07:36:28;9.10;75.80
68924;DHT22;55961;52.156;20.942;2023-05-07T07:38:54;9.10;75.40
68924;DHT22;55961;52.156;20.942;2023-05-07T07:41:20;9.20;74.30
68924;DHT22;55961;52.156;20.942;2023-05-07T07:43:46;9.20;73.60
68924;DHT22;55961;52.156;20.942;2023-05-07T07:46:13;9.20;73.40
68924;DHT22;55961;52.156;20.942;2023-05-07T07:48:38;9.30;72.80
68924;DHT22;55961;52.156;20.942;2023-05-07T07:51:06;9.30;73.70
68924;DHT22;55961;52.156;20.942;2023-05-07T07:53:32;9.40;74.20
68924;DHT22;55961;52.156;20.942;2023-05-07T07:55:58;9.40;71.70
68924;DHT22;55961;52.156;20.942;2023-05-07T07:58:24;9.40;72.50
68924;DHT22;55961;52.156;20.942;2023-05-07T08:00:50;9.50;72.50
68924;DHT22;55961;52.156;20.942;2023-05-07T08:03:16;9.50;72.70
68924;DHT22;55961;52.156;20.942;2023-05-07T08:05:43;9.50;72.00
68924;DHT22;55961;52.156;20.942;2023-05-07T08:08:09;9.50;71.20
68924;DHT22;55961;52.156;20.942;2023-05-07T08:10:35;9.50;71.40
68924;DHT22;55961;52.156;20.942;2023-05-07T08:13:04;9.60;70.20
68924;DHT22;55961;52.156;20.942;2023-05-07T08:15:30;9.60;70.10
68924;DHT22;55961;52.156;20.942;2023-05-07T08:17:57;9.60;70.30
68924;DHT22;55961;52.156;20.942;2023-05-07T08:20:23;9.60;70.30
68924;DHT22;55961;52.156;20.942;2023-05-07T08:22:49;9.70;70.30
68924;DHT22;55961;52.156;20.942;2023-05-07T08:25:16;9.70;71.00
68924;DHT22;55961;52.156;20.942;2023-05-07T08:27:42;9.80;71.00
68924;DHT22;55961;52.156;20.942;2023-05-07T08:30:10;9.90;70.60
68924;DHT22;55961;52.156;20.942;2023-05-07T08:32:36;9.90;69.10
68924;DHT22;55961;52.156;20.942;2023-05-07T08:35:02;10.00;68.70
68924;DHT22;55961;52.156;20.942;2023-05-07T08:37:28;10.10;68.50
68924;DHT22;55961;52.156;20.942;2023-05-07T08:39:54;10.10;67.60
68924;DHT22;55961;52.156;20.942;2023-05-07T08:42:21;10.10;68.20
68924;DHT22;55961;52.156;20.942;2023-05-07T08:44:51;10.10;68.30
68924;DHT22;55961;52.156;20.942;2023-05-07T08:47:19;10.20;67.70
68924;DHT22;55961;52.156;20.942;2023-05-07T08:49:46;10.20;67.40
68924;DHT22;55961;52.156;20.942;2023-05-07T08:52:12;10.20;67.60
68924;DHT22;55961;52.156;20.942;2023-05-07T08:54:38;10.20;67.70
68924;DHT22;55961;52.156;20.942;2023-05-07T08:57:05;10.20;67.00
68924;DHT22;55961;52.156;20.942;2023-05-07T08:59:31;10.20;66.00
68924;DHT22;55961;52.156;20.942;2023-05-07T09:01:57;10.20;66.30
68924;DHT22;55961;52.156;20.942;2023-05-07T09:04:23;10.20;66.40
68924;DHT22;55961;52.156;20.942;2023-05-07T09:06:48;10.20;67.20
68924;DHT22;55961;52.156;20.942;2023-05-07T09:09:17;10.20;65.90
68924;DHT22;55961;52.156;20.942;2023-05-07T09:11:46;10.20;64.80
68924;DHT22;55961;52.156;20.942;2023-05-07T09:14:12;10.20;65.00
68924;DHT22;55961;52.156;20.942;2023-05-07T09:16:38;10.10;64.40
68924;DHT22;55961;52.156;20.942;2023-05-07T09:19:04;10.10;64.60
68924;DHT22;55961;52.156;20.942;2023-05-07T09:21:30;10.10;65.10
68924;DHT22;55961;52.156;20.942;2023-05-07T09:23:57;10.10;65.20
68924;DHT22;55961;52.156;20.942;2023-05-07T09:26:24;10.10;65.60
68924;DHT22;55961;52.156;20.942;2023-05-07T09:28:51;10.10;64.80
68924;DHT22;55961;52.156;20.942;2023-05-07T09:31:17;10.10;64.40
68924;DHT22;55961;52.156;20.942;2023-05-07T09:33:43;10.20;63.70
68924;DHT22;55961;52.156;20.942;2023-05-07T09:36:09;10.20;63.20
68924;DHT22;55961;52.156;20.942;2023-05-07T09:38:37;10.30;63.10
68924;DHT22;55961;52.156;20.942;2023-05-07T09:43:36;10.40;62.10
68924;DHT22;55961;52.156;20.942;2023-05-07T09:46:06;10.40;61.90
68924;DHT22;55961;52.156;20.942;2023-05-07T09:48:35;10.50;61.20
68924;DHT22;55961;52.156;20.942;2023-05-07T09:51:06;10.50;61.60
68924;DHT22;55961;52.156;20.942;2023-05-07T09:53:37;10.60;61.90
68924;DHT22;55961;52.156;20.942;2023-05-07T09:56:05;10.60;61.70
68924;DHT22;55961;52.156;20.942;2023-05-07T09:58:32;10.60;61.70
68924;DHT22;55961;52.156;20.942;2023-05-07T10:01:02;10.70;62.00
68924;DHT22;55961;52.156;20.942;2023-05-07T10:03:30;10.70;62.50
68924;DHT22;55961;52.156;20.942;2023-05-07T10:05:58;10.80;61.10
68924;DHT22;55961;52.156;20.942;2023-05-07T10:08:25;10.90;59.70
68924;DHT22;55961;52.156;20.942;2023-05-07T10:10:51;10.90;60.40
68924;DHT22;55961;52.156;20.942;2023-05-07T10:13:19;10.90;60.50
68924;DHT22;55961;52.156;20.942;2023-05-07T10:15:45;10.90;59.40
68924;DHT22;55961;52.156;20.942;2023-05-07T10:18:12;10.90;60.20
68924;DHT22;55961;52.156;20.942;2023-05-07T10:20:39;10.90;60.50
68924;DHT22;55961;52.156;20.942;2023-05-07T10:23:05;10.90;61.10
68924;DHT22;55961;52.156;20.942;2023-05-07T10:25:32;10.90;60.60
68924;DHT22;55961;52.156;20.942;2023-05-07T10:28:06;11.00;60.80
68924;DHT22;55961;52.156;20.942;2023-05-07T10:30:58;11.00;60.00
68924;DHT22;55961;52.156;20.942;2023-05-07T10:33:28;11.00;58.90
68924;DHT22;55961;52.156;20.942;2023-05-07T10:35:58;11.00;59.40
68924;DHT22;55961;52.156;20.942;2023-05-07T10:38:27;11.00;60.10
68924;DHT22;55961;52.156;20.942;2023-05-07T10:40:53;11.10;59.30
68924;DHT22;55961;52.156;20.942;2023-05-07T10:43:19;11.10;59.50
68924;DHT22;55961;52.156;20.942;2023-05-07T10:51:29;11.00;59.90
68924;DHT22;55961;52.156;20.942;2023-05-07T10:56:37;11.00;59.10
68924;DHT22;55961;52.156;20.942;2023-05-07T11:01:56;11.10;58.70
68924;DHT22;55961;52.156;20.942;2023-05-07T11:04:28;11.10;58.40
68924;DHT22;55961;52.156;20.942;2023-05-07T11:12:45;11.00;59.30
68924;DHT22;55961;52.156;20.942;2023-05-07T11:15:11;11.00;58.90
68924;DHT22;55961;52.156;20.942;2023-05-07T11:17:57;11.10;57.90
68924;DHT22;55961;52.156;20.942;2023-05-07T11:26:07;11.20;59.30
68924;DHT22;55961;52.156;20.942;2023-05-07T11:28:37;11.30;58.60
68924;DHT22;55961;52.156;20.942;2023-05-07T11:31:04;11.40;58.70
68924;DHT22;55961;52.156;20.942;2023-05-07T11:33:34;11.40;58.50
68924;DHT22;55961;52.156;20.942;2023-05-07T11:36:02;11.50;57.20
68924;DHT22;55961;52.156;20.942;2023-05-07T11:38:34;11.50;58.10
68924;DHT22;55961;52.156;20.942;2023-05-07T11:41:00;11.60;57.30
68924;DHT22;55961;52.156;20.942;2023-05-07T11:43:27;11.70;57.20
68924;DHT22;55961;52.156;20.942;2023-05-07T11:45:53;11.70;56.70
68924;DHT22;55961;52.156;20.942;2023-05-07T11:48:21;11.80;57.30
68924;DHT22;55961;52.156;20.942;2023-05-07T11:50:51;11.80;58.10
68924;DHT22;55961;52.156;20.942;2023-05-07T11:53:18;11.90;56.60
68924;DHT22;55961;52.156;20.942;2023-05-07T11:55:46;11.90;56.40
68924;DHT22;55961;52.156;20.942;2023-05-07T11:58:15;12.00;55.60
68924;DHT22;55961;52.156;20.942;2023-05-07T12:00:53;12.10;55.40
68924;DHT22;55961;52.156;20.942;2023-05-07T12:03:20;12.10;55.80
68924;DHT22;55961;52.156;20.942;2023-05-07T12:05:47;12.20;56.40
68924;DHT22;55961;52.156;20.942;2023-05-07T12:08:20;12.20;55.50
68924;DHT22;55961;52.156;20.942;2023-05-07T12:10:48;12.30;55.20
68924;DHT22;55961;52.156;20.942;2023-05-07T12:13:25;12.40;55.80
68924;DHT22;55961;52.156;20.942;2023-05-07T12:15:52;12.50;55.20
68924;DHT22;55961;52.156;20.942;2023-05-07T12:18:19;12.60;54.80
68924;DHT22;55961;52.156;20.942;2023-05-07T12:20:46;12.70;54.40
68924;DHT22;55961;52.156;20.942;2023-05-07T12:23:12;12.80;53.60
68924;DHT22;55961;52.156;20.942;2023-05-07T12:25:39;12.80;54.30
68924;DHT22;55961;52.156;20.942;2023-05-07T12:28:07;12.80;53.70
68924;DHT22;55961;52.156;20.942;2023-05-07T12:30:37;12.70;53.80
68924;DHT22;55961;52.156;20.942;2023-05-07T12:33:04;12.70;54.20
68924;DHT22;55961;52.156;20.942;2023-05-07T12:35:31;12.70;54.20
68924;DHT22;55961;52.156;20.942;2023-05-07T12:37:58;12.60;53.60
68924;DHT22;55961;52.156;20.942;2023-05-07T12:40:45;12.60;53.80
68924;DHT22;55961;52.156;20.942;2023-05-07T12:45:44;12.50;54.40
68924;DHT22;55961;52.156;20.942;2023-05-07T12:48:11;12.60;53.70
68924;DHT22;55961;52.156;20.942;2023-05-07T12:50:37;12.60;55.10
68924;DHT22;55961;52.156;20.942;2023-05-07T12:53:04;12.70;54.20
68924;DHT22;55961;52.156;20.942;2023-05-07T12:55:44;12.70;53.00
68924;DHT22;55961;52.156;20.942;2023-05-07T12:58:20;12.70;53.20
68924;DHT22;55961;52.156;20.942;2023-05-07T13:00:50;12.70;53.50
68924;DHT22;55961;52.156;20.942;2023-05-07T13:03:28;12.70;53.60
68924;DHT22;55961;52.156;20.942;2023-05-07T13:05:59;12.80;53.10
68924;DHT22;55961;52.156;20.942;2023-05-07T13:08:32;12.70;53.40
68924;DHT22;55961;52.156;20.942;2023-05-07T13:11:00;12.70;52.30
68924;DHT22;55961;52.156;20.942;2023-05-07T13:13:32;12.70;53.20
68924;DHT22;55961;52.156;20.942;2023-05-07T13:15:59;12.70;53.50
68924;DHT22;55961;52.156;20.942;2023-05-07T13:18:26;12.70;53.80
68924;DHT22;55961;52.156;20.942;2023-05-07T13:20:53;12.70;53.80
68924;DHT22;55961;52.156;20.942;2023-05-07T13:23:19;12.70;53.90
68924;DHT22;55961;52.156;20.942;2023-05-07T13:25:45;12.80;54.30
68924;DHT22;55961;52.156;20.942;2023-05-07T13:28:11;12.90;54.20
68924;DHT22;55961;52.156;20.942;2023-05-07T13:30:38;13.00;52.80
68924;DHT22;55961;52.156;20.942;2023-05-07T13:33:04;13.00;53.10
68924;DHT22;55961;52.156;20.942;2023-05-07T13:35:30;13.10;52.30
68924;DHT22;55961;52.156;20.942;2023-05-07T13:37:56;13.10;52.00
68924;DHT22;55961;52.156;20.942;2023-05-07T13:40:22;13.10;52.60
68924;DHT22;55961;52.156;20.942;2023-05-07T13:42:49;13.20;51.50
68924;DHT22;55961;52.156;20.942;2023-05-07T13:45:17;13.20;52.10
68924;DHT22;55961;52.156;20.942;2023-05-07T13:47:44;13.20;51.70
68924;DHT22;55961;52.156;20.942;2023-05-07T13:50:11;13.10;52.90
68924;DHT22;55961;52.156;20.942;2023-05-07T13:52:43;13.10;52.30
68924;DHT22;55961;52.156;20.942;2023-05-07T13:55:09;13.10;52.50
68924;DHT22;55961;52.156;20.942;2023-05-07T13:57:36;13.10;52.30
68924;DHT22;55961;52.156;20.942;2023-05-07T14:00:04;13.20;52.80
68924;DHT22;55961;52.156;20.942;2023-05-07T14:02:31;13.30;51.20
68924;DHT22;55961;52.156;20.942;2023-05-07T14:04:57;13.40;51.00
68924;DHT22;55961;52.156;20.942;2023-05-07T14:07:23;13.50;50.80
68924;DHT22;55961;52.156;20.942;2023-05-07T14:09:49;13.60;50.80
68924;DHT22;55961;52.156;20.942;2023-05-07T14:12:15;13.70;50.10
68924;DHT22;55961;52.156;20.942;2023-05-07T14:14:41;13.70;49.60
68924;DHT22;55961;52.156;20.942;2023-05-07T14:17:07;13.70;49.90
68924;DHT22;55961;52.156;20.942;2023-05-07T14:19:34;13.70;49.30
68924;DHT22;55961;52.156;20.942;2023-05-07T14:21:59;13.80;49.40
68924;DHT22;55961;52.156;20.942;2023-05-07T14:24:25;13.80;49.90
68924;DHT22;55961;52.156;20.942;2023-05-07T14:26:51;13.80;50.70
68924;DHT22;55961;52.156;20.942;2023-05-07T14:29:17;13.90;50.80
68924;DHT22;55961;52.156;20.942;2023-05-07T14:31:45;14.00;50.20
68924;DHT22;55961;52.156;20.942;2023-05-07T14:34:11;14.00;48.30
68924;DHT22;55961;52.156;20.942;2023-05-07T14:36:37;14.00;48.60
68924;DHT22;55961;52.156;20.942;2023-05-07T14:39:04;13.90;48.60
68924;DHT22;55961;52.156;20.942;2023-05-07T14:41:29;14.00;48.70
68924;DHT22;55961;52.156;20.942;2023-05-07T14:43:57;14.00;49.20
68924;DHT22;55961;52.156;20.942;2023-05-07T14:46:24;14.00;48.40
68924;DHT22;55961;52.156;20.942;2023-05-07T14:48:51;14.00;48.90
68924;DHT22;55961;52.156;20.942;2023-05-07T14:51:18;13.90;48.40
68924;DHT22;55961;52.156;20.942;2023-05-07T14:53:44;13.90;48.70
68924;DHT22;55961;52.156;20.942;2023-05-07T14:56:10;13.90;48.10
68924;DHT22;55961;52.156;20.942;2023-05-07T14:58:36;14.00;47.80
68924;DHT22;55961;52.156;20.942;2023-05-07T15:01:03;14.00;48.10
68924;DHT22;55961;52.156;20.942;2023-05-07T15:03:29;14.00;48.60
68924;DHT22;55961;52.156;20.942;2023-05-07T15:05:55;14.10;47.50
68924;DHT22;55961;52.156;20.942;2023-05-07T15:08:21;14.10;47.70
68924;DHT22;55961;52.156;20.942;2023-05-07T15:10:47;14.20;47.50
68924;DHT22;55961;52.156;20.942;2023-05-07T15:13:14;14.20;47.10
68924;DHT22;55961;52.156;20.942;2023-05-07T15:15:40;14.30;47.80
68924;DHT22;55961;52.156;20.942;2023-05-07T15:18:06;14.40;48.10
68924;DHT22;55961;52.156;20.942;2023-05-07T15:20:31;14.40;46.30
68924;DHT22;55961;52.156;20.942;2023-05-07T15:22:57;14.40;45.90
68924;DHT22;55961;52.156;20.942;2023-05-07T15:25:23;14.40;46.70
68924;DHT22;55961;52.156;20.942;2023-05-07T15:27:49;14.50;47.60
68924;DHT22;55961;52.156;20.942;2023-05-07T15:30:16;14.50;48.00
68924;DHT22;55961;52.156;20.942;2023-05-07T15:32:42;14.50;47.80
68924;DHT22;55961;52.156;20.942;2023-05-07T15:35:09;14.50;46.80
68924;DHT22;55961;52.156;20.942;2023-05-07T15:37:35;14.50;46.50
68924;DHT22;55961;52.156;20.942;2023-05-07T15:40:01;14.50;46.90
68924;DHT22;55961;52.156;20.942;2023-05-07T15:42:33;14.40;46.60
68924;DHT22;55961;52.156;20.942;2023-05-07T15:44:59;14.50;46.40
68924;DHT22;55961;52.156;20.942;2023-05-07T15:47:27;14.50;46.50
68924;DHT22;55961;52.156;20.942;2023-05-07T15:49:53;14.50;47.40
68924;DHT22;55961;52.156;20.942;2023-05-07T15:52:19;14.50;45.90